Terminal Aerodrome Forecast
Issued by NWS Amarillo, TX

Current Version | Previous Version | Text Only | Print | Product List | Glossary Off
Versions: 1 2 3 4 5 6 7 8 9 10 11 12 13 14 15 16 17 18 19 20 21 22 23 24 25 26 27 28 29 30

000
FTUS44 KAMA 110520
TAFGUY
TAF
KGUY 110520Z 1106/1206 VRB06KT P6SM FEW250
     FM111500 32012KT P6SM FEW250
     FM111700 03015KT P6SM SKC
     FM120300 06012KT P6SM SCT250=

USA.gov is the U.S. government's official web portal to all federal, state and local government web resources and services.